sensor_id;sensor_type;location;lat;lon;timestamp;pressure;altitude;pressure_sealevel;temperature;humidity
78123;BME280;67376;44.802;10.332;2023-05-10T00:01:42;100684.84;;;22.54;52.28
78123;BME280;67376;44.802;10.332;2023-05-10T00:04:07;100688.41;;;22.55;52.24
78123;BME280;67376;44.802;10.332;2023-05-10T00:06:33;100685.91;;;22.53;52.20
78123;BME280;67376;44.802;10.332;2023-05-10T00:08:58;100685.91;;;22.53;52.74
78123;BME280;67376;44.802;10.332;2023-05-10T00:11:24;100691.38;;;22.53;52.63
78123;BME280;67376;44.802;10.332;2023-05-10T00:13:49;100685.91;;;22.53;52.95
78123;BME280;67376;44.802;10.332;2023-05-10T00:16:14;100678.59;;;22.54;52.63
78123;BME280;67376;44.802;10.332;2023-05-10T00:18:40;100669.59;;;22.53;52.33
78123;BME280;67376;44.802;10.332;2023-05-10T00:21:05;100672.31;;;22.53;52.74
78123;BME280;67376;44.802;10.332;2023-05-10T00:23:31;100668.81;;;22.53;52.75
78123;BME280;67376;44.802;10.332;2023-05-10T00:25:57;100661.72;;;22.52;52.57
78123;BME280;67376;44.802;10.332;2023-05-10T00:28:22;100653.56;;;22.52;52.35
78123;BME280;67376;44.802;10.332;2023-05-10T00:30:47;100653.56;;;22.52;52.77
78123;BME280;67376;44.802;10.332;2023-05-10T00:33:13;100651.09;;;22.50;52.44
78123;BME280;67376;44.802;10.332;2023-05-10T00:35:38;100642.09;;;22.50;52.68
78123;BME280;67376;44.802;10.332;2023-05-10T00:38:04;100650.00;;;22.51;52.44
78123;BME280;67376;44.802;10.332;2023-05-10T00:40:29;100652.16;;;22.49;52.51
78123;BME280;67376;44.802;10.332;2023-05-10T00:42:56;100651.09;;;22.50;52.50
78123;BME280;67376;44.802;10.332;2023-05-10T00:45:21;100646.47;;;22.51;52.81
78123;BME280;67376;44.802;10.332;2023-05-10T00:47:47;100635.59;;;22.51;52.91
78123;BME280;67376;44.802;10.332;2023-05-10T00:50:14;100636.41;;;22.51;52.52
78123;BME280;67376;44.802;10.332;2023-05-10T00:52:40;100633.94;;;22.50;53.06
78123;BME280;67376;44.802;10.332;2023-05-10T00:55:06;100628.50;;;22.50;52.65
78123;BME280;67376;44.802;10.332;2023-05-10T00:57:32;100624.13;;;22.49;52.57
78123;BME280;67376;44.802;10.332;2023-05-10T00:59:58;100618.94;;;22.47;52.76
78123;BME280;67376;44.802;10.332;2023-05-10T01:02:24;100624.13;;;22.49;53.02
78123;BME280;67376;44.802;10.332;2023-05-10T01:04:50;100617.03;;;22.48;52.75
78123;BME280;67376;44.802;10.332;2023-05-10T01:07:16;100617.88;;;22.48;52.93
78123;BME280;67376;44.802;10.332;2023-05-10T01:09:42;100619.75;;;22.48;53.18
78123;BME280;67376;44.802;10.332;2023-05-10T01:12:07;100617.88;;;22.48;52.58
78123;BME280;67376;44.802;10.332;2023-05-10T01:14:34;100618.13;;;22.47;52.90
78123;BME280;67376;44.802;10.332;2023-05-10T01:17:02;100627.94;;;22.48;52.83
78123;BME280;67376;44.802;10.332;2023-05-10T01:19:30;100630.91;;;22.46;52.91
78123;BME280;67376;44.802;10.332;2023-05-10T01:25:11;100643.44;;;22.47;52.95
78123;BME280;67376;44.802;10.332;2023-05-10T01:40:57;100621.09;;;22.45;52.57
78123;BME280;67376;44.802;10.332;2023-05-10T01:43:28;100622.72;;;22.46;52.99
78123;BME280;67376;44.802;10.332;2023-05-10T01:46:03;100611.03;;;22.46;52.62
78123;BME280;67376;44.802;10.332;2023-05-10T01:48:37;100609.38;;;22.45;52.67
78123;BME280;67376;44.802;10.332;2023-05-10T01:51:06;100602.31;;;22.44;52.62
78123;BME280;67376;44.802;10.332;2023-05-10T01:53:35;100609.38;;;22.45;52.83
78123;BME280;67376;44.802;10.332;2023-05-10T01:56:03;100604.19;;;22.43;52.87
78123;BME280;67376;44.802;10.332;2023-05-10T01:58:33;100606.91;;;22.43;52.68
78123;BME280;67376;44.802;10.332;2023-05-10T02:01:03;100612.34;;;22.43;52.54
78123;BME280;67376;44.802;10.332;2023-05-10T02:03:30;100612.34;;;22.43;52.76
78123;BME280;67376;44.802;10.332;2023-05-10T02:05:57;100618.63;;;22.44;52.81
78123;BME280;67376;44.802;10.332;2023-05-10T02:08:23;100618.63;;;22.44;52.80
78123;BME280;67376;44.802;10.332;2023-05-10T02:10:53;100609.88;;;22.42;52.44
78123;BME280;67376;44.802;10.332;2023-05-10T02:13:19;100613.44;;;22.42;53.06
78123;BME280;67376;44.802;10.332;2023-05-10T02:15:48;100611.78;;;22.41;52.62
78123;BME280;67376;44.802;10.332;2023-05-10T02:18:14;100600.91;;;22.41;52.45
78123;BME280;67376;44.802;10.332;2023-05-10T02:20:41;100602.81;;;22.40;52.31
78123;BME280;67376;44.802;10.332;2023-05-10T02:23:08;100601.97;;;22.40;52.44
78123;BME280;67376;44.802;10.332;2023-05-10T02:25:35;100600.09;;;22.40;52.28
78123;BME280;67376;44.802;10.332;2023-05-10T02:28:04;100595.72;;;22.39;52.36
78123;BME280;67376;44.802;10.332;2023-05-10T02:30:32;100594.06;;;22.38;52.45
78123;BME280;67376;44.802;10.332;2023-05-10T02:32:59;100588.38;;;22.40;52.71
78123;BME280;67376;44.802;10.332;2023-05-10T02:35:26;100590.28;;;22.39;52.70
78123;BME280;67376;44.802;10.332;2023-05-10T02:37:52;100587.00;;;22.37;52.68
78123;BME280;67376;44.802;10.332;2023-05-10T02:40:19;100589.47;;;22.39;52.50
78123;BME280;67376;44.802;10.332;2023-05-10T02:42:47;100582.38;;;22.38;52.58
78123;BME280;67376;44.802;10.332;2023-05-10T02:45:16;100580.47;;;22.38;52.73
78123;BME280;67376;44.802;10.332;2023-05-10T02:47:43;100584.00;;;22.39;52.41
78123;BME280;67376;44.802;10.332;2023-05-10T02:50:09;100584.25;;;22.37;52.64
78123;BME280;67376;44.802;10.332;2023-05-10T02:52:56;100577.19;;;22.36;52.66
78123;BME280;67376;44.802;10.332;2023-05-10T02:55:27;100569.84;;;22.37;52.27
78123;BME280;67376;44.802;10.332;2023-05-10T02:58:00;100566.28;;;22.36;52.51
78123;BME280;67376;44.802;10.332;2023-05-10T03:00:25;100575.28;;;22.37;52.32
78123;BME280;67376;44.802;10.332;2023-05-10T03:02:51;100564.91;;;22.34;52.44
78123;BME280;67376;44.802;10.332;2023-05-10T03:05:17;100576.34;;;22.36;52.44
78123;BME280;67376;44.802;10.332;2023-05-10T03:07:43;100573.88;;;22.34;52.44
78123;BME280;67376;44.802;10.332;2023-05-10T03:10:09;100573.88;;;22.34;52.02
78123;BME280;67376;44.802;10.332;2023-05-10T03:18:42;100568.44;;;22.34;52.04
78123;BME280;67376;44.802;10.332;2023-05-10T03:21:04;100563.84;;;22.35;52.02
78123;BME280;67376;44.802;10.332;2023-05-10T03:23:42;100560.53;;;22.33;52.19
78123;BME280;67376;44.802;10.332;2023-05-10T03:26:08;100564.91;;;22.34;52.42
78123;BME280;67376;44.802;10.332;2023-05-10T03:28:35;100561.63;;;22.32;52.45
78123;BME280;67376;44.802;10.332;2023-05-10T03:31:02;100564.34;;;22.32;52.15
78123;BME280;67376;44.802;10.332;2023-05-10T03:33:29;100561.63;;;22.32;51.98
78123;BME280;67376;44.802;10.332;2023-05-10T03:35:54;100557.81;;;22.33;51.75
78123;BME280;67376;44.802;10.332;2023-05-10T03:38:20;100563.25;;;22.33;51.87
78123;BME280;67376;44.802;10.332;2023-05-10T03:40:45;100564.34;;;22.32;52.14
78123;BME280;67376;44.802;10.332;2023-05-10T03:43:10;100562.44;;;22.32;51.70
78123;BME280;67376;44.802;10.332;2023-05-10T03:45:36;100567.88;;;22.32;51.67
78123;BME280;67376;44.802;10.332;2023-05-10T03:48:01;100564.59;;;22.30;51.79
78123;BME280;67376;44.802;10.332;2023-05-10T03:50:27;100572.50;;;22.32;51.70
78123;BME280;67376;44.802;10.332;2023-05-10T03:52:52;100567.31;;;22.30;51.86
78123;BME280;67376;44.802;10.332;2023-05-10T03:55:17;100572.75;;;22.30;52.07
78123;BME280;67376;44.802;10.332;2023-05-10T03:57:43;100563.75;;;22.30;51.99
78123;BME280;67376;44.802;10.332;2023-05-10T04:00:09;100567.56;;;22.29;51.96
78123;BME280;67376;44.802;10.332;2023-05-10T04:02:35;100562.13;;;22.29;51.75
78123;BME280;67376;44.802;10.332;2023-05-10T04:05:00;100568.38;;;22.29;51.93
78123;BME280;67376;44.802;10.332;2023-05-10T04:07:26;100573.00;;;22.29;52.20
78123;BME280;67376;44.802;10.332;2023-05-10T04:09:51;100574.91;;;22.28;51.80
78123;BME280;67376;44.802;10.332;2023-05-10T04:12:17;100567.81;;;22.27;51.69
78123;BME280;67376;44.802;10.332;2023-05-10T04:14:42;100571.34;;;22.28;51.96
78123;BME280;67376;44.802;10.332;2023-05-10T04:17:08;100568.63;;;22.28;52.02
78123;BME280;67376;44.802;10.332;2023-05-10T04:19:33;100570.03;;;22.30;51.65
78123;BME280;67376;44.802;10.332;2023-05-10T04:21:58;100556.44;;;22.30;51.73
78123;BME280;67376;44.802;10.332;2023-05-10T04:24:24;100556.19;;;22.32;52.11
78123;BME280;67376;44.802;10.332;2023-05-10T04:26:50;100557.00;;;22.32;52.05
78123;BME280;67376;44.802;10.332;2023-05-10T04:29:15;100564.91;;;22.34;51.69
78123;BME280;67376;44.802;10.332;2023-05-10T04:31:40;100562.94;;;22.29;52.30
78123;BME280;67376;44.802;10.332;2023-05-10T04:34:06;100564.88;;;22.12;52.41
78123;BME280;67376;44.802;10.332;2023-05-10T04:36:31;100555.97;;;21.78;52.82
78123;BME280;67376;44.802;10.332;2023-05-10T04:38:58;100559.44;;;21.57;52.87
78123;BME280;67376;44.802;10.332;2023-05-10T04:41:24;100560.34;;;21.46;53.33
78123;BME280;67376;44.802;10.332;2023-05-10T04:43:50;100561.19;;;21.46;53.35
78123;BME280;67376;44.802;10.332;2023-05-10T04:46:15;100558.72;;;21.61;52.93
78123;BME280;67376;44.802;10.332;2023-05-10T04:48:41;100560.50;;;21.72;52.57
78123;BME280;67376;44.802;10.332;2023-05-10T04:51:06;100551.13;;;21.80;51.95
78123;BME280;67376;44.802;10.332;2023-05-10T04:53:32;100561.88;;;21.92;52.34
78123;BME280;67376;44.802;10.332;2023-05-10T04:55:57;100558.13;;;21.98;52.70
78123;BME280;67376;44.802;10.332;2023-05-10T04:58:22;100562.84;;;22.02;52.22
78123;BME280;67376;44.802;10.332;2023-05-10T05:00:48;100558.81;;;22.05;52.25
78123;BME280;67376;44.802;10.332;2023-05-10T05:03:13;100559.38;;;22.07;52.49
78123;BME280;67376;44.802;10.332;2023-05-10T05:05:39;100560.78;;;22.10;52.10
78123;BME280;67376;44.802;10.332;2023-05-10T05:08:05;100554.25;;;22.11;52.37
78123;BME280;67376;44.802;10.332;2023-05-10T05:10:30;100553.75;;;22.14;52.24
78123;BME280;67376;44.802;10.332;2023-05-10T05:12:56;100551.03;;;22.14;52.24
78123;BME280;67376;44.802;10.332;2023-05-10T05:15:21;100545.34;;;22.15;52.16
78123;BME280;67376;44.802;10.332;2023-05-10T05:17:46;100546.19;;;22.16;52.00
78123;BME280;67376;44.802;10.332;2023-05-10T05:20:12;100553.84;;;22.19;51.66
78123;BME280;67376;44.802;10.332;2023-05-10T05:22:38;100561.91;;;22.14;52.41
78123;BME280;67376;44.802;10.332;2023-05-10T05:25:04;100560.84;;;22.15;52.25
78123;BME280;67376;44.802;10.332;2023-05-10T05:27:30;100555.41;;;22.15;52.27
78123;BME280;67376;44.802;10.332;2023-05-10T05:29:56;100570.66;;;22.16;52.15
78123;BME280;67376;44.802;10.332;2023-05-10T05:32:22;100559.78;;;22.16;52.07
78123;BME280;67376;44.802;10.332;2023-05-10T05:34:48;100562.16;;;22.12;52.07
78123;BME280;67376;44.802;10.332;2023-05-10T05:37:18;100573.38;;;22.16;51.94
78123;BME280;67376;44.802;10.332;2023-05-10T05:39:44;100572.53;;;22.15;51.97
78123;BME280;67376;44.802;10.332;2023-05-10T05:42:10;100577.16;;;22.15;52.06
78123;BME280;67376;44.802;10.332;2023-05-10T05:44:35;100576.28;;;22.09;52.00
78123;BME280;67376;44.802;10.332;2023-05-10T05:47:01;100573.72;;;22.02;51.32
78123;BME280;67376;44.802;10.332;2023-05-10T05:49:26;100579.63;;;21.99;51.90
78123;BME280;67376;44.802;10.332;2023-05-10T05:51:52;100577.28;;;22.03;52.01
78123;BME280;67376;44.802;10.332;2023-05-10T05:54:17;100586.97;;;21.99;51.39
78123;BME280;67376;44.802;10.332;2023-05-10T05:56:42;100579.53;;;21.89;51.56
78123;BME280;67376;44.802;10.332;2023-05-10T05:59:09;100586.78;;;21.84;51.23
78123;BME280;67376;44.802;10.332;2023-05-10T06:01:35;100596.81;;;21.83;51.38
78123;BME280;67376;44.802;10.332;2023-05-10T06:04:00;100593.28;;;21.83;51.32
78123;BME280;67376;44.802;10.332;2023-05-10T06:06:26;100590.56;;;21.83;51.00
78123;BME280;67376;44.802;10.332;2023-05-10T06:08:52;100588.91;;;21.82;50.73
78123;BME280;67376;44.802;10.332;2023-05-10T06:11:17;100589.16;;;21.80;50.84
78123;BME280;67376;44.802;10.332;2023-05-10T06:13:42;100592.38;;;21.77;50.98
78123;BME280;67376;44.802;10.332;2023-05-10T06:16:08;100589.84;;;21.70;50.98
78123;BME280;67376;44.802;10.332;2023-05-10T06:18:33;100596.34;;;21.69;51.09
78123;BME280;67376;44.802;10.332;2023-05-10T06:20:58;100605.06;;;21.71;50.56
78123;BME280;67376;44.802;10.332;2023-05-10T06:23:24;100601.28;;;21.72;51.10
78123;BME280;67376;44.802;10.332;2023-05-10T06:25:51;100597.72;;;21.72;50.89
78123;BME280;67376;44.802;10.332;2023-05-10T06:28:16;100598.81;;;21.71;50.57
78123;BME280;67376;44.802;10.332;2023-05-10T06:30:41;100600.13;;;21.68;50.71
78123;BME280;67376;44.802;10.332;2023-05-10T06:33:07;100610.41;;;21.66;50.61
78123;BME280;67376;44.802;10.332;2023-05-10T06:35:32;100605.81;;;21.67;50.89
78123;BME280;67376;44.802;10.332;2023-05-10T06:37:58;100606.88;;;21.66;50.94
78123;BME280;67376;44.802;10.332;2023-05-10T06:40:24;100613.38;;;21.65;50.88
78123;BME280;67376;44.802;10.332;2023-05-10T06:42:49;100618.25;;;21.63;50.71
78123;BME280;67376;44.802;10.332;2023-05-10T06:45:15;100617.66;;;21.61;51.03
78123;BME280;67376;44.802;10.332;2023-05-10T06:47:41;100632.31;;;21.60;50.79
78123;BME280;67376;44.802;10.332;2023-05-10T06:50:07;100627.22;;;21.63;50.85
78123;BME280;67376;44.802;10.332;2023-05-10T06:52:33;100628.84;;;21.64;50.58
78123;BME280;67376;44.802;10.332;2023-05-10T06:54:58;100629.94;;;21.63;50.56
78123;BME280;67376;44.802;10.332;2023-05-10T06:57:24;100639.16;;;21.62;50.96
78123;BME280;67376;44.802;10.332;2023-05-10T06:59:49;100643.75;;;21.62;50.77
78123;BME280;67376;44.802;10.332;2023-05-10T07:02:15;100643.44;;;21.58;50.84
78123;BME280;67376;44.802;10.332;2023-05-10T07:04:40;100646.16;;;21.58;50.36
78123;BME280;67376;44.802;10.332;2023-05-10T07:07:06;100655.13;;;21.59;50.93
78123;BME280;67376;44.802;10.332;2023-05-10T07:09:31;100658.66;;;21.59;50.66
78123;BME280;67376;44.802;10.332;2023-05-10T07:11:57;100649.59;;;21.54;50.58
78123;BME280;67376;44.802;10.332;2023-05-10T07:14:22;100656.91;;;21.53;50.21
78123;BME280;67376;44.802;10.332;2023-05-10T07:16:48;100657.75;;;21.54;50.57
78123;BME280;67376;44.802;10.332;2023-05-10T07:19:13;100653.13;;;21.54;50.60
78123;BME280;67376;44.802;10.332;2023-05-10T07:21:39;100672.50;;;21.58;50.67
78123;BME280;67376;44.802;10.332;2023-05-10T07:24:07;100647.94;;;21.53;50.02
78123;BME280;67376;44.802;10.332;2023-05-10T07:26:33;100664.81;;;21.55;50.39
78123;BME280;67376;44.802;10.332;2023-05-10T07:28:58;100665.31;;;21.52;50.43
78123;BME280;67376;44.802;10.332;2023-05-10T07:31:23;100672.88;;;21.50;50.15
78123;BME280;67376;44.802;10.332;2023-05-10T07:33:49;100672.63;;;21.51;50.32
78123;BME280;67376;44.802;10.332;2023-05-10T07:36:14;100681.28;;;21.48;49.87
78123;BME280;67376;44.802;10.332;2023-05-10T07:38:39;100680.78;;;21.51;49.81
78123;BME280;67376;44.802;10.332;2023-05-10T07:41:05;100684.34;;;21.52;50.37
78123;BME280;67376;44.802;10.332;2023-05-10T07:43:30;100693.06;;;21.54;50.00
78123;BME280;67376;44.802;10.332;2023-05-10T07:45:56;100689.53;;;21.53;50.05
78123;BME280;67376;44.802;10.332;2023-05-10T07:48:22;100686.81;;;21.53;49.99
78123;BME280;67376;44.802;10.332;2023-05-10T07:50:48;100694.72;;;21.55;50.18
78123;BME280;67376;44.802;10.332;2023-05-10T07:53:13;100694.13;;;21.53;49.72
78123;BME280;67376;44.802;10.332;2023-05-10T07:55:38;100686.13;;;21.46;49.90
78123;BME280;67376;44.802;10.332;2023-05-10T07:58:04;100700.53;;;21.47;50.33
78123;BME280;67376;44.802;10.332;2023-05-10T08:00:29;100697.00;;;21.46;50.28
78123;BME280;67376;44.802;10.332;2023-05-10T08:02:54;100703.84;;;21.49;49.63
78123;BME280;67376;44.802;10.332;2023-05-10T08:05:20;100704.91;;;21.48;49.86
78123;BME280;67376;44.802;10.332;2023-05-10T08:07:45;100713.06;;;21.48;49.76
78123;BME280;67376;44.802;10.332;2023-05-10T08:10:10;100711.75;;;21.50;49.73
78123;BME280;67376;44.802;10.332;2023-05-10T08:12:36;100719.06;;;21.50;49.77
78123;BME280;67376;44.802;10.332;2023-05-10T08:15:02;100718.00;;;21.51;50.19
78123;BME280;67376;44.802;10.332;2023-05-10T08:17:28;100723.69;;;21.49;49.78
78123;BME280;67376;44.802;10.332;2023-05-10T08:19:53;100726.53;;;21.42;50.39
78123;BME280;67376;44.802;10.332;2023-05-10T08:22:19;100725.22;;;21.45;50.44
78123;BME280;67376;44.802;10.332;2023-05-10T08:24:44;100733.03;;;21.41;50.45
78123;BME280;67376;44.802;10.332;2023-05-10T08:27:10;100731.38;;;21.40;49.88
78123;BME280;67376;44.802;10.332;2023-05-10T08:29:37;100737.66;;;21.41;50.39
78123;BME280;67376;44.802;10.332;2023-05-10T08:32:02;100745.72;;;21.36;50.23
78123;BME280;67376;44.802;10.332;2023-05-10T08:34:28;100738.31;;;21.31;50.47
78123;BME280;67376;44.802;10.332;2023-05-10T08:36:53;100746.22;;;21.33;50.25
78123;BME280;67376;44.802;10.332;2023-05-10T08:39:18;100747.03;;;21.33;49.69
78123;BME280;67376;44.802;10.332;2023-05-10T08:41:45;100745.63;;;21.31;49.70
78123;BME280;67376;44.802;10.332;2023-05-10T08:44:12;100745.97;;;21.34;49.56
78123;BME280;67376;44.802;10.332;2023-05-10T08:46:39;100747.28;;;21.32;49.82
78123;BME280;67376;44.802;10.332;2023-05-10T08:49:10;100742.66;;;21.32;49.82
78123;BME280;67376;44.802;10.332;2023-05-10T08:51:40;100755.53;;;21.37;49.68
78123;BME280;67376;44.802;10.332;2023-05-10T08:54:09;100753.13;;;21.40;49.55
78123;BME280;67376;44.802;10.332;2023-05-10T08:56:34;100755.66;;;21.59;50.37
78123;BME280;67376;44.802;10.332;2023-05-10T08:59:01;100753.66;;;21.54;49.43
78123;BME280;67376;44.802;10.332;2023-05-10T09:01:27;100763.13;;;21.52;49.63
78123;BME280;67376;44.802;10.332;2023-05-10T09:03:53;100757.94;;;21.50;49.52
78123;BME280;67376;44.802;10.332;2023-05-10T09:06:18;100761.72;;;21.49;49.90
78123;BME280;67376;44.802;10.332;2023-05-10T09:08:44;100767.97;;;21.50;49.44
78123;BME280;67376;44.802;10.332;2023-05-10T09:11:11;100764.66;;;21.48;49.53
78123;BME280;67376;44.802;10.332;2023-05-10T09:13:36;100773.16;;;21.51;49.42
78123;BME280;67376;44.802;10.332;2023-05-10T09:16:05;100779.41;;;21.52;49.39
78123;BME280;67376;44.802;10.332;2023-05-10T09:18:30;100777.28;;;21.54;49.26
78123;BME280;67376;44.802;10.332;2023-05-10T09:20:56;100770.78;;;21.55;49.55
78123;BME280;67376;44.802;10.332;2023-05-10T09:23:21;100787.41;;;21.58;49.36
78123;BME280;67376;44.802;10.332;2023-05-10T09:25:47;100769.59;;;21.79;49.32
78123;BME280;67376;44.802;10.332;2023-05-10T09:28:12;100775.09;;;21.67;49.18
78123;BME280;67376;44.802;10.332;2023-05-10T09:30:38;100778.53;;;21.63;49.03
78123;BME280;67376;44.802;10.332;2023-05-10T09:33:04;100788.00;;;21.60;49.39
78123;BME280;67376;44.802;10.332;2023-05-10T09:35:31;100787.66;;;21.57;49.51
78123;BME280;67376;44.802;10.332;2023-05-10T09:38:03;100786.00;;;21.56;49.58
78123;BME280;67376;44.802;10.332;2023-05-10T09:40:30;100782.47;;;21.55;49.25
78123;BME280;67376;44.802;10.332;2023-05-10T09:43:00;100784.69;;;21.58;49.13
78123;BME280;67376;44.802;10.332;2023-05-10T09:45:28;100787.19;;;21.60;49.28
78123;BME280;67376;44.802;10.332;2023-05-10T09:47:54;100784.94;;;21.57;49.34
78123;BME280;67376;44.802;10.332;2023-05-10T09:50:20;100791.25;;;21.46;49.00
78123;BME280;67376;44.802;10.332;2023-05-10T09:52:46;100784.22;;;21.33;49.16
78123;BME280;67376;44.802;10.332;2023-05-10T09:55:12;100786.34;;;21.19;49.24
78123;BME280;67376;44.802;10.332;2023-05-10T09:57:38;100790.84;;;21.14;49.28
78123;BME280;67376;44.802;10.332;2023-05-10T10:00:05;100791.91;;;21.13;49.53
78123;BME280;67376;44.802;10.332;2023-05-10T10:02:31;100787.44;;;21.18;52.49
78123;BME280;67376;44.802;10.332;2023-05-10T10:04:57;100784.72;;;21.30;56.77
78123;BME280;67376;44.802;10.332;2023-05-10T10:07:23;100782.47;;;21.15;58.80
78123;BME280;67376;44.802;10.332;2023-05-10T10:09:53;100783.09;;;21.05;56.32
78123;BME280;67376;44.802;10.332;2023-05-10T10:12:19;100788.41;;;21.00;53.96
78123;BME280;67376;44.802;10.332;2023-05-10T10:14:46;100782.16;;;21.00;52.75
78123;BME280;67376;44.802;10.332;2023-05-10T10:17:12;100791.69;;;21.02;52.91
78123;BME280;67376;44.802;10.332;2023-05-10T10:19:38;100788.50;;;21.05;52.96
78123;BME280;67376;44.802;10.332;2023-05-10T10:22:03;100788.50;;;21.05;52.83
78123;BME280;67376;44.802;10.332;2023-05-10T10:24:29;100784.97;;;21.05;52.40
78123;BME280;67376;44.802;10.332;2023-05-10T10:27:11;100784.16;;;21.04;52.64
78123;BME280;67376;44.802;10.332;2023-05-10T10:30:04;100778.72;;;21.04;51.52
78123;BME280;67376;44.802;10.332;2023-05-10T10:34:59;100777.31;;;21.02;50.93
78123;BME280;67376;44.802;10.332;2023-05-10T10:37:42;100783.56;;;21.02;50.51
78123;BME280;67376;44.802;10.332;2023-05-10T10:40:32;100774.81;;;21.00;50.25
78123;BME280;67376;44.802;10.332;2023-05-10T10:42:58;100779.19;;;21.01;50.75
78123;BME280;67376;44.802;10.332;2023-05-10T10:45:43;100769.63;;;20.99;50.55
78123;BME280;67376;44.802;10.332;2023-05-10T10:48:28;100779.66;;;20.98;50.27
78123;BME280;67376;44.802;10.332;2023-05-10T10:50:57;100770.34;;;20.94;50.13
78123;BME280;67376;44.802;10.332;2023-05-10T10:53:28;100771.28;;;21.00;50.42
78123;BME280;67376;44.802;10.332;2023-05-10T10:56:10;100775.28;;;21.09;51.44
78123;BME280;67376;44.802;10.332;2023-05-10T10:58:37;100773.97;;;21.12;51.25
78123;BME280;67376;44.802;10.332;2023-05-10T11:01:14;100769.47;;;21.17;50.85
78123;BME280;67376;44.802;10.332;2023-05-10T11:03:40;100759.22;;;21.19;50.11
78123;BME280;67376;44.802;10.332;2023-05-10T11:06:05;100762.75;;;21.20;50.29
78123;BME280;67376;44.802;10.332;2023-05-10T11:08:32;100757.94;;;21.22;49.95
78123;BME280;67376;44.802;10.332;2023-05-10T11:13:34;100749.06;;;21.26;49.79
78123;BME280;67376;44.802;10.332;2023-05-10T11:18:57;100762.16;;;21.29;49.98
78123;BME280;67376;44.802;10.332;2023-05-10T11:21:23;100762.16;;;21.29;49.84
78123;BME280;67376;44.802;10.332;2023-05-10T11:23:54;100752.13;;;21.30;50.27
78123;BME280;67376;44.802;10.332;2023-05-10T11:26:25;100759.19;;;21.31;50.38
78123;BME280;67376;44.802;10.332;2023-05-10T11:28:52;100748.34;;;21.31;49.65
78123;BME280;67376;44.802;10.332;2023-05-10T11:31:19;100746.69;;;21.30;49.83
78123;BME280;67376;44.802;10.332;2023-05-10T11:33:53;100751.53;;;21.28;49.92
78123;BME280;67376;44.802;10.332;2023-05-10T11:36:29;100751.06;;;21.31;49.45
78123;BME280;67376;44.802;10.332;2023-05-10T11:38:57;100753.78;;;21.31;49.39
78123;BME280;67376;44.802;10.332;2023-05-10T11:41:23;100752.94;;;21.30;49.52
78123;BME280;67376;44.802;10.332;2023-05-10T11:43:50;100743.72;;;21.31;49.76
78123;BME280;67376;44.802;10.332;2023-05-10T11:46:19;100746.44;;;21.31;49.51
78123;BME280;67376;44.802;10.332;2023-05-10T11:48:45;100751.88;;;21.31;49.27
78123;BME280;67376;44.802;10.332;2023-05-10T11:51:11;100747.28;;;21.32;49.52
78123;BME280;67376;44.802;10.332;2023-05-10T11:53:37;100748.94;;;21.33;49.80
78123;BME280;67376;44.802;10.332;2023-05-10T11:56:12;100748.09;;;21.32;49.92
78123;BME280;67376;44.802;10.332;2023-05-10T11:58:38;100747.28;;;21.32;49.78
78123;BME280;67376;44.802;10.332;2023-05-10T12:01:05;100750.00;;;21.32;49.32
78123;BME280;67376;44.802;10.332;2023-05-10T12:03:31;100746.44;;;21.31;49.30
78123;BME280;67376;44.802;10.332;2023-05-10T12:05:58;100741.84;;;21.32;49.96
78123;BME280;67376;44.802;10.332;2023-05-10T12:08:27;100739.13;;;21.32;49.80
78123;BME280;67376;44.802;10.332;2023-05-10T12:11:03;100744.56;;;21.32;49.70
78123;BME280;67376;44.802;10.332;2023-05-10T12:13:28;100742.09;;;21.30;49.23
78123;BME280;67376;44.802;10.332;2023-05-10T12:15:57;100750.00;;;21.32;49.30
78123;BME280;67376;44.802;10.332;2023-05-10T12:18:22;100739.94;;;21.32;49.13
78123;BME280;67376;44.802;10.332;2023-05-10T12:20:51;100747.50;;;21.30;49.52
78123;BME280;67376;44.802;10.332;2023-05-10T12:23:19;100744.31;;;21.33;49.57
78123;BME280;67376;44.802;10.332;2023-05-10T12:25:44;100737.25;;;21.32;49.38
78123;BME280;67376;44.802;10.332;2023-05-10T12:28:10;100737.25;;;21.32;49.81
78123;BME280;67376;44.802;10.332;2023-05-10T12:30:36;100742.91;;;21.31;49.51
78123;BME280;67376;44.802;10.332;2023-05-10T12:33:08;100738.31;;;21.31;49.48
78123;BME280;67376;44.802;10.332;2023-05-10T12:35:52;100738.31;;;21.31;49.80
78123;BME280;67376;44.802;10.332;2023-05-10T12:38:47;100738.31;;;21.31;49.42
78123;BME280;67376;44.802;10.332;2023-05-10T12:41:15;100736.41;;;21.32;49.32
78123;BME280;67376;44.802;10.332;2023-05-10T12:43:41;100736.41;;;21.32;49.87
78123;BME280;67376;44.802;10.332;2023-05-10T12:46:13;100739.72;;;21.34;49.63
78123;BME280;67376;44.802;10.332;2023-05-10T12:48:40;100732.88;;;21.31;49.63
78123;BME280;67376;44.802;10.332;2023-05-10T12:51:06;100731.81;;;21.32;49.92
78123;BME280;67376;44.802;10.332;2023-05-10T12:53:34;100731.81;;;21.32;49.58
78123;BME280;67376;44.802;10.332;2023-05-10T12:56:00;100730.97;;;21.32;50.01
78123;BME280;67376;44.802;10.332;2023-05-10T12:58:25;100731.81;;;21.32;50.11
78123;BME280;67376;44.802;10.332;2023-05-10T13:00:51;100726.38;;;21.32;49.83
78123;BME280;67376;44.802;10.332;2023-05-10T13:03:17;100729.91;;;21.33;49.76
78123;BME280;67376;44.802;10.332;2023-05-10T13:05:42;100723.41;;;21.34;50.01
78123;BME280;67376;44.802;10.332;2023-05-10T13:08:08;100731.81;;;21.32;49.60
78123;BME280;67376;44.802;10.332;2023-05-10T13:10:33;100733.69;;;21.32;49.37